Time;durP1;ratioP1;P1;durP2;ratioP2;P2;SDS_P1;SDS_P2;PMS_P1;PMS_P2;Temp;Humidity;BMP_temperature;BMP_pressure;BME280_temperature;BME280_humidity;BME280_pressure;Samples;Min_cycle;Max_cycle;Signal;HPM_P1;HPM_P2
2023/11/15 00:00:53;;;;;;;0.70;0.33;;;;;;;7.24;100.00;96819.53;6218058;28;20887;-51
2023/11/15 00:03:55;;;;;;;1.17;0.60;;;;;;;7.33;100.00;96827.91;6212549;28;20226;-50
2023/11/15 00:06:58;;;;;;;2.10;0.40;;;;;;;7.27;100.00;96842.09;6213858;28;20683;-49
2023/11/15 00:10:00;;;;;;;0.60;0.33;;;;;;;7.27;100.00;96834.16;6218548;28;20208;-52
2023/11/15 00:13:02;;;;;;;1.93;0.70;;;;;;;7.28;100.00;96849.81;6215694;28;20560;-48
2023/11/15 00:16:05;;;;;;;0.40;0.40;;;;;;;7.24;100.00;96857.44;6217578;28;20195;-50
2023/11/15 00:19:07;;;;;;;0.40;0.40;;;;;;;7.40;100.00;96868.28;6216113;28;20255;-52
2023/11/15 00:22:11;;;;;;;1.30;0.60;;;;;;;7.45;100.00;96884.28;6218336;28;20336;-53
2023/11/15 00:25:13;;;;;;;0.90;0.60;;;;;;;7.99;100.00;96889.84;6218079;28;20199;-53
2023/11/15 00:28:19;;;;;;;0.40;0.40;;;;;;;8.32;100.00;96865.03;6217009;28;20208;-52
2023/11/15 00:31:22;;;;;;;1.63;0.40;;;;;;;8.77;100.00;96870.13;6218144;28;20236;-53
2023/11/15 00:34:24;;;;;;;0.50;0.30;;;;;;;9.02;100.00;96858.13;6219108;28;20232;-50
2023/11/15 00:37:26;;;;;;;0.37;0.30;;;;;;;9.17;100.00;96855.63;6207628;28;20215;-50
2023/11/15 00:40:29;;;;;;;0.57;0.30;;;;;;;9.14;100.00;96839.38;6218863;28;20193;-52
2023/11/15 00:43:31;;;;;;;0.20;0.20;;;;;;;9.47;100.00;96844.41;6219090;28;20193;-54
2023/11/15 00:46:34;;;;;;;0.30;0.30;;;;;;;9.80;100.00;96855.78;6200265;28;20208;-53
2023/11/15 00:49:37;;;;;;;0.60;0.30;;;;;;;9.84;100.00;96843.59;6200151;28;20378;-51
2023/11/15 00:52:39;;;;;;;0.30;0.20;;;;;;;10.11;100.00;96870.09;6216843;28;20207;-53
2023/11/15 00:55:42;;;;;;;1.03;0.30;;;;;;;10.57;100.00;96873.75;6217731;28;20690;-51
2023/11/15 00:58:44;;;;;;;0.83;0.10;;;;;;;10.55;100.00;96904.41;6215157;28;20596;-50
2023/11/15 01:01:57;;;;;;;1.23;0.10;;;;;;;10.73;97.70;96898.59;6216802;28;20206;-52
2023/11/15 01:05:00;;;;;;;0.20;0.20;;;;;;;10.68;98.30;96865.81;6216855;28;20219;-51
2023/11/15 01:08:04;;;;;;;0.30;0.30;;;;;;;10.50;100.00;96872.41;6217196;28;20207;-52
2023/11/15 01:11:06;;;;;;;0.93;0.40;;;;;;;10.53;100.00;96861.22;6217908;28;20202;-53
2023/11/15 01:14:08;;;;;;;0.57;0.20;;;;;;;10.18;100.00;96856.53;6198265;28;20307;-51
2023/11/15 01:17:10;;;;;;;0.20;0.10;;;;;;;10.07;100.00;96853.81;6217088;28;20199;-53
2023/11/15 01:20:13;;;;;;;0.87;0.20;;;;;;;10.18;100.00;96843.22;6212463;28;20293;-50
2023/11/15 01:23:15;;;;;;;0.10;0.10;;;;;;;10.59;91.59;96850.34;6199044;28;20579;-53
2023/11/15 01:26:18;;;;;;;0.20;0.20;;;;;;;10.67;89.96;96846.38;6199057;28;20196;-51
2023/11/15 01:29:21;;;;;;;0.40;0.20;;;;;;;10.53;93.54;96861.22;6215963;28;20275;-51
2023/11/15 01:32:24;;;;;;;0.10;0.10;;;;;;;10.32;93.60;96857.69;6187965;28;20287;-50
2023/11/15 01:35:26;;;;;;;0.10;0.10;;;;;;;10.20;96.56;96867.75;6200652;28;20230;-52
2023/11/15 01:38:29;;;;;;;0.10;0.10;;;;;;;10.15;95.15;96863.19;6217134;28;20627;-51
2023/11/15 01:41:31;;;;;;;0.10;0.10;;;;;;;10.15;95.90;96873.84;6191158;28;20679;-51
2023/11/15 01:44:34;;;;;;;0.60;0.13;;;;;;;9.96;98.84;96864.69;6198023;28;20197;-53
2023/11/15 01:47:36;;;;;;;0.60;0.23;;;;;;;10.13;96.07;96856.50;6215575;28;20207;-51
2023/11/15 01:50:39;;;;;;;0.17;0.17;;;;;;;9.80;100.00;96845.16;6202867;28;20219;-53
2023/11/15 01:53:41;;;;;;;0.10;0.10;;;;;;;9.78;97.52;96829.47;6221069;28;20208;-53
2023/11/15 01:56:44;;;;;;;2.63;0.30;;;;;;;9.60;99.80;96831.72;6202964;28;20204;-52
2023/11/15 01:59:47;;;;;;;0.20;0.20;;;;;;;9.24;100.00;96821.66;6220057;28;20571;-51
2023/11/15 02:02:49;;;;;;;0.10;0.10;;;;;;;9.56;96.48;96844.75;6203266;28;20589;-53
2023/11/15 02:05:53;;;;;;;0.20;0.20;;;;;;;9.83;95.35;96813.53;6203211;28;20207;-52
2023/11/15 02:08:56;;;;;;;0.50;0.30;;;;;;;9.86;95.56;96862.75;6221358;28;20861;-53
2023/11/15 02:11:59;;;;;;;1.97;0.30;;;;;;;10.17;91.82;96846.97;6217557;28;20676;-50
2023/11/15 02:15:01;;;;;;;0.77;0.20;;;;;;;9.77;98.39;96861.63;6217883;28;20291;-54
2023/11/15 02:18:05;;;;;;;0.30;0.30;;;;;;;9.51;98.96;96877.41;6202661;28;20205;-52
2023/11/15 02:21:07;;;;;;;0.77;0.30;;;;;;;10.32;89.04;96863.03;6202809;28;20203;-54
2023/11/15 02:24:11;;;;;;;1.03;0.40;;;;;;;10.60;85.74;96848.50;6220861;28;20195;-48
2023/11/15 02:27:13;;;;;;;4.43;0.67;;;;;;;10.41;87.67;96858.81;6221456;28;20204;-51
2023/11/15 02:30:16;;;;;;;0.20;0.20;;;;;;;10.08;90.68;96833.34;6220326;28;20195;-51
2023/11/15 02:33:18;;;;;;;1.80;0.30;;;;;;;9.85;95.15;96850.50;6220288;28;20749;-50
2023/11/15 02:36:21;;;;;;;1.43;0.30;;;;;;;9.55;98.65;96861.75;6218800;28;20208;-52
2023/11/15 02:39:23;;;;;;;0.30;0.30;;;;;;;9.52;95.96;96841.78;6203172;28;20200;-51
2023/11/15 02:42:26;;;;;;;0.40;0.30;;;;;;;10.24;88.04;96858.97;6220274;28;20602;-48
2023/11/15 02:45:28;;;;;;;0.30;0.30;;;;;;;10.24;91.21;96863.50;6215465;28;20221;-51
2023/11/15 02:48:30;;;;;;;0.87;0.40;;;;;;;10.01;94.90;96851.41;6202781;28;20669;-51
2023/11/15 02:51:32;;;;;;;0.70;0.20;;;;;;;9.78;96.63;96833.97;6219245;28;20583;-53
2023/11/15 02:54:35;;;;;;;2.00;0.33;;;;;;;9.85;97.24;96901.03;6218703;28;20200;-53
2023/11/15 02:57:37;;;;;;;0.37;0.30;;;;;;;10.14;90.39;96874.06;6218404;28;20206;-53
2023/11/15 03:00:39;;;;;;;0.50;0.20;;;;;;;10.35;89.27;96853.72;6219792;28;20204;-53
2023/11/15 03:03:41;;;;;;;1.60;0.43;;;;;;;10.54;82.81;96865.50;6216240;28;20192;-50
2023/11/15 03:06:44;;;;;;;0.50;0.20;;;;;;;10.49;84.92;96868.97;6216335;28;20210;-53
2023/11/15 03:09:46;;;;;;;0.20;0.20;;;;;;;11.01;77.97;96868.00;6219843;28;20196;-53
2023/11/15 03:12:48;;;;;;;0.20;0.20;;;;;;;11.33;74.63;96881.13;6217638;28;20858;-53
2023/11/15 03:15:52;;;;;;;1.27;0.20;;;;;;;11.27;76.49;96846.72;6220441;28;20214;-52
2023/11/15 03:18:54;;;;;;;0.27;0.20;;;;;;;11.18;75.81;96875.78;6219508;28;20254;-54
2023/11/15 03:21:56;;;;;;;0.83;0.30;;;;;;;10.93;78.45;96868.53;6209698;28;20210;-53
2023/11/15 03:24:59;;;;;;;0.77;0.20;;;;;;;10.81;78.32;96879.44;6217278;28;20211;-53
2023/11/15 03:28:01;;;;;;;0.30;0.20;;;;;;;10.57;79.67;96876.44;6220516;28;20205;-51
2023/11/15 03:31:04;;;;;;;0.50;0.30;;;;;;;10.94;78.43;96912.78;6220439;28;20232;-53
2023/11/15 03:34:06;;;;;;;0.20;0.13;;;;;;;10.80;80.45;96893.03;6202539;28;20776;-53
2023/11/15 03:37:09;;;;;;;0.20;0.20;;;;;;;10.18;82.55;96793.44;6200833;28;20211;-52
2023/11/15 03:40:11;;;;;;;1.70;0.50;;;;;;;10.43;84.01;96871.84;6218225;28;20205;-52
2023/11/15 03:43:13;;;;;;;0.47;0.20;;;;;;;10.57;82.01;96892.41;6218914;28;20649;-54
2023/11/15 03:46:15;;;;;;;2.73;0.40;;;;;;;10.74;81.12;96881.56;6219585;28;20826;-54
2023/11/15 03:49:19;;;;;;;0.47;0.30;;;;;;;11.23;77.19;96858.97;6219264;28;20231;-56
2023/11/15 03:52:21;;;;;;;0.57;0.37;;;;;;;11.07;78.29;96898.13;6218521;28;20207;-54
2023/11/15 03:55:23;;;;;;;1.63;0.40;;;;;;;11.03;79.61;96860.56;6217199;28;20769;-52
2023/11/15 03:58:25;;;;;;;0.80;0.20;;;;;;;10.79;82.05;96862.13;6219080;28;20326;-54
2023/11/15 04:01:27;;;;;;;0.20;0.20;;;;;;;10.67;82.27;96875.66;6201828;28;20203;-55
2023/11/15 04:04:29;;;;;;;0.50;0.20;;;;;;;10.82;78.79;96877.56;6219555;28;20205;-55
2023/11/15 04:07:33;;;;;;;0.50;0.30;;;;;;;11.02;77.73;96898.94;6218850;28;20195;-55
2023/11/15 04:10:36;;;;;;;0.67;0.30;;;;;;;10.78;79.05;96919.91;6219350;28;20235;-52
2023/11/15 04:13:39;;;;;;;0.83;0.40;;;;;;;10.79;81.17;96913.53;6215080;28;20221;-56
2023/11/15 04:16:41;;;;;;;0.53;0.30;;;;;;;11.10;75.96;96925.06;6201426;28;20203;-55
2023/11/15 04:19:43;;;;;;;1.20;0.30;;;;;;;11.11;76.25;96872.56;6218068;28;20197;-54
2023/11/15 04:22:47;;;;;;;1.27;0.33;;;;;;;11.15;75.85;96894.16;6217001;28;20204;-53
2023/11/15 04:25:50;;;;;;;1.27;0.30;;;;;;;10.91;78.75;96862.66;6200389;28;20712;-54
2023/11/15 04:28:52;;;;;;;0.93;0.40;;;;;;;11.24;74.51;96896.03;6216552;28;20202;-55
2023/11/15 04:31:55;;;;;;;0.20;0.20;;;;;;;10.85;78.48;96880.50;6207836;28;20615;-53
2023/11/15 04:34:57;;;;;;;1.33;0.40;;;;;;;11.26;74.13;96877.91;6199715;28;20245;-56
2023/11/15 04:37:59;;;;;;;0.20;0.20;;;;;;;11.02;78.40;96911.47;6202667;28;20349;-55
2023/11/15 04:41:01;;;;;;;1.23;0.40;;;;;;;10.85;75.18;96869.84;6201510;28;20193;-50
2023/11/15 04:44:04;;;;;;;0.20;0.20;;;;;;;10.92;76.88;96890.13;6182947;28;20205;-54
2023/11/15 04:47:06;;;;;;;0.27;0.20;;;;;;;10.75;77.81;96898.34;6200709;28;20661;-53
2023/11/15 04:50:09;;;;;;;1.67;0.50;;;;;;;10.83;77.68;96935.91;6199473;28;20660;-52
2023/11/15 04:53:11;;;;;;;1.63;0.40;;;;;;;10.81;77.46;96899.94;6199512;28;20649;-54
2023/11/15 04:56:17;;;;;;;0.20;0.20;;;;;;;10.72;79.67;96912.97;6196521;28;20582;-54
2023/11/15 04:59:22;;;;;;;1.13;0.20;;;;;;;10.93;76.78;96894.38;6197748;28;20204;-54
2023/11/15 05:02:27;;;;;;;0.37;0.20;;;;;;;10.77;79.04;96882.88;6194392;28;20291;-53
2023/11/15 05:05:29;;;;;;;0.40;0.30;;;;;;;10.69;80.22;96894.88;6179698;28;20193;-52
2023/11/15 05:08:32;;;;;;;0.20;0.20;;;;;;;10.75;77.75;96912.47;6196170;28;20272;-53
2023/11/15 05:11:35;;;;;;;1.47;0.20;;;;;;;10.65;77.47;96896.44;6190634;28;20227;-53
2023/11/15 05:14:39;;;;;;;0.63;0.20;;;;;;;10.88;77.03;96916.47;6197145;28;20217;-53
2023/11/15 05:17:42;;;;;;;0.20;0.13;;;;;;;10.85;77.27;96911.69;6194740;28;20271;-52
2023/11/15 05:20:46;;;;;;;0.63;0.23;;;;;;;11.02;75.76;96933.56;6190438;28;20228;-54
2023/11/15 05:23:48;;;;;;;0.30;0.20;;;;;;;10.79;79.09;96939.38;6200778;28;20205;-53
2023/11/15 05:26:50;;;;;;;1.10;0.30;;;;;;;10.86;78.04;96926.59;6196894;28;20650;-51
2023/11/15 05:29:52;;;;;;;0.60;0.23;;;;;;;10.76;78.44;96955.88;6197567;28;20195;-51
2023/11/15 05:32:54;;;;;;;1.17;0.30;;;;;;;10.42;79.80;96937.63;6190790;28;20225;-52
2023/11/15 05:35:56;;;;;;;3.90;0.30;;;;;;;10.38;80.66;96928.53;6193061;28;20299;-54
2023/11/15 05:38:59;;;;;;;1.70;0.37;;;;;;;10.78;79.02;96983.06;6193750;28;20236;-53
2023/11/15 05:42:01;;;;;;;0.40;0.20;;;;;;;10.64;80.02;96960.59;6192736;28;20206;-51
2023/11/15 05:45:03;;;;;;;2.43;0.50;;;;;;;10.67;79.43;96978.75;6192664;28;20204;-52
2023/11/15 05:48:05;;;;;;;1.53;0.30;;;;;;;10.67;79.19;96984.06;6191315;28;20196;-51
2023/11/15 05:51:08;;;;;;;2.57;0.37;;;;;;;10.89;77.85;96973.25;6192378;28;20203;-53
2023/11/15 05:54:10;;;;;;;0.30;0.30;;;;;;;10.90;78.82;96986.31;6193315;28;20223;-50
2023/11/15 05:57:13;;;;;;;0.50;0.23;;;;;;;10.74;79.20;97000.63;6191868;28;20566;-53
2023/11/15 06:00:20;;;;;;;0.40;0.30;;;;;;;10.61;82.08;97001.09;6193078;28;20192;-53
2023/11/15 06:03:22;;;;;;;0.47;0.40;;;;;;;10.40;83.08;97000.97;6192420;28;20597;-51
2023/11/15 06:06:24;;;;;;;0.30;0.30;;;;;;;10.35;82.59;97003.63;6193373;28;20303;-49
2023/11/15 06:09:27;;;;;;;0.20;0.20;;;;;;;10.48;81.67;97019.13;6192122;28;20196;-47
2023/11/15 06:12:30;;;;;;;1.50;0.30;;;;;;;10.49;81.99;97034.06;6191890;28;20215;-51
2023/11/15 06:15:32;;;;;;;0.67;0.30;;;;;;;10.80;80.47;97031.56;6191825;28;20214;-53
2023/11/15 06:18:35;;;;;;;0.40;0.20;;;;;;;10.83;80.50;97033.69;6193332;28;20192;-49
2023/11/15 06:21:44;;;;;;;0.40;0.40;;;;;;;10.62;83.36;97039.97;6176037;28;20326;-51
2023/11/15 06:24:46;;;;;;;0.30;0.30;;;;;;;10.76;81.59;97049.13;6193491;28;20211;-53
2023/11/15 06:27:48;;;;;;;0.57;0.37;;;;;;;10.49;83.91;97052.72;6192605;28;20786;-53
2023/11/15 06:30:51;;;;;;;1.10;0.33;;;;;;;10.43;86.50;97059.03;6175195;28;20244;-52
2023/11/15 06:33:53;;;;;;;1.00;0.37;;;;;;;10.47;84.31;97052.13;6197344;28;20216;-54
2023/11/15 06:36:55;;;;;;;0.33;0.30;;;;;;;10.40;85.39;97112.81;6202831;28;20207;-53
2023/11/15 06:39:58;;;;;;;1.00;0.30;;;;;;;10.36;84.04;97069.09;6196768;28;20232;-52
2023/11/15 06:43:00;;;;;;;0.70;0.30;;;;;;;10.24;85.21;97073.78;6197424;28;20203;-51
2023/11/15 06:46:03;;;;;;;0.73;0.33;;;;;;;10.09;85.88;97074.44;6193502;28;20200;-54
2023/11/15 06:49:06;;;;;;;0.30;0.30;;;;;;;10.20;85.53;97097.44;6177518;28;20203;-54
2023/11/15 06:52:09;;;;;;;0.50;0.40;;;;;;;10.32;84.25;97076.78;6184564;28;20220;-53
2023/11/15 06:55:12;;;;;;;1.23;0.30;;;;;;;10.19;85.57;97103.81;6185145;28;20600;-54
2023/11/15 06:58:18;;;;;;;0.27;0.23;;;;;;;10.28;85.49;97094.34;6181216;28;20672;-49
2023/11/15 07:01:21;;;;;;;0.40;0.40;;;;;;;10.43;84.88;97127.47;6188721;28;20611;-53
2023/11/15 07:04:23;;;;;;;0.87;0.20;;;;;;;10.28;86.07;97112.16;6182832;28;20273;-54
2023/11/15 07:07:25;;;;;;;2.10;0.50;;;;;;;10.31;85.76;97130.31;6192968;28;20257;-53
2023/11/15 07:10:29;;;;;;;1.00;0.37;;;;;;;10.03;89.06;97150.78;6201992;28;20288;-52
2023/11/15 07:13:32;;;;;;;1.10;0.40;;;;;;;9.86;91.05;97166.03;6193971;28;20798;-53
2023/11/15 07:16:34;;;;;;;0.30;0.30;;;;;;;9.87;91.60;97162.31;6189439;28;20289;-53
2023/11/15 07:19:38;;;;;;;1.00;0.40;;;;;;;9.92;89.93;97153.59;6177221;28;20628;-51
2023/11/15 07:22:40;;;;;;;1.73;0.30;;;;;;;9.53;93.64;97149.16;6188173;28;20206;-53
2023/11/15 07:25:42;;;;;;;0.67;0.30;;;;;;;9.68;95.34;97193.75;6193799;28;20195;-54
2023/11/15 07:28:44;;;;;;;2.13;0.50;;;;;;;9.62;94.73;97185.97;6200382;28;20206;-52
2023/11/15 07:31:52;;;;;;;2.83;0.40;;;;;;;9.56;97.58;97193.88;6181254;28;20237;-50
2023/11/15 07:34:55;;;;;;;1.23;0.40;;;;;;;9.73;91.46;97209.78;6196899;28;20690;-53
2023/11/15 07:37:57;;;;;;;3.43;0.40;;;;;;;9.69;94.82;97195.34;6196626;28;20345;-54
2023/11/15 07:40:59;;;;;;;0.30;0.30;;;;;;;9.94;90.58;97205.47;6196668;28;20210;-52
2023/11/15 07:44:01;;;;;;;0.73;0.30;;;;;;;10.07;87.22;97222.94;6197252;28;20189;-54
2023/11/15 07:47:04;;;;;;;0.53;0.30;;;;;;;10.03;88.61;97222.63;6195947;28;20204;-53
2023/11/15 07:50:06;;;;;;;0.20;0.20;;;;;;;9.97;89.04;97234.25;6197131;28;20226;-51
2023/11/15 07:53:08;;;;;;;1.67;0.37;;;;;;;9.49;93.37;97181.81;6196253;28;20200;-50
2023/11/15 07:56:11;;;;;;;0.53;0.40;;;;;;;9.84;91.93;97247.94;6202995;28;20208;-51
2023/11/15 07:59:14;;;;;;;0.70;0.40;;;;;;;9.83;88.64;97231.16;6196419;28;20198;-51
2023/11/15 08:02:17;;;;;;;1.17;0.53;;;;;;;9.91;88.84;97261.88;6198945;28;20294;-52
2023/11/15 08:05:20;;;;;;;0.67;0.40;;;;;;;10.09;87.69;97295.34;6198440;28;20196;-54
2023/11/15 08:08:23;;;;;;;5.83;0.43;;;;;;;9.77;87.57;97253.44;6193130;28;20200;-53
2023/11/15 08:11:25;;;;;;;0.50;0.27;;;;;;;9.96;87.81;97298.38;6198620;28;20287;-51
2023/11/15 08:14:30;;;;;;;1.17;0.30;;;;;;;9.99;87.14;97285.38;6205225;28;20421;-52
2023/11/15 08:17:35;;;;;;;1.23;0.53;;;;;;;10.08;88.00;97312.34;6196913;28;20203;-53
2023/11/15 08:20:41;;;;;;;1.60;0.70;;;;;;;10.09;86.21;97352.03;6197792;28;20205;-53
2023/11/15 08:23:44;;;;;;;1.03;0.50;;;;;;;10.04;85.97;97328.00;6196922;28;20196;-53
2023/11/15 08:26:47;;;;;;;0.60;0.30;;;;;;;9.88;89.49;97344.84;6196592;28;20199;-52
2023/11/15 08:29:49;;;;;;;2.47;0.60;;;;;;;9.80;89.95;97338.09;6197666;28;20191;-53
2023/11/15 08:32:52;;;;;;;1.10;0.50;;;;;;;9.78;94.23;97340.19;6200302;28;20234;-51
2023/11/15 08:35:54;;;;;;;1.23;0.40;;;;;;;9.81;89.51;97337.03;6203639;28;20214;-54
2023/11/15 08:38:57;;;;;;;1.40;0.50;;;;;;;9.80;93.06;97364.69;6204472;28;20199;-51
2023/11/15 08:42:00;;;;;;;0.20;0.20;;;;;;;9.86;93.28;97368.22;6188646;28;20204;-51
2023/11/15 08:45:09;;;;;;;1.23;0.67;;;;;;;10.29;85.87;97356.03;6186066;28;20190;-52
2023/11/15 08:48:13;;;;;;;1.37;0.60;;;;;;;10.25;86.34;97360.25;6190777;28;20204;-51
2023/11/15 08:51:17;;;;;;;0.87;0.40;;;;;;;10.65;81.42;97369.78;6190166;28;20202;-52
2023/11/15 08:54:20;;;;;;;0.67;0.40;;;;;;;10.51;84.98;97374.69;6191497;28;20216;-51
2023/11/15 08:57:22;;;;;;;2.50;0.40;;;;;;;10.49;85.08;97382.09;6188447;28;20206;-51
2023/11/15 09:00:24;;;;;;;0.40;0.40;;;;;;;10.66;80.05;97387.38;6188119;28;20207;-53
2023/11/15 09:03:27;;;;;;;0.57;0.33;;;;;;;10.64;84.62;97376.97;6188845;28;20192;-48
2023/11/15 09:06:30;;;;;;;1.30;0.40;;;;;;;10.82;78.57;97368.63;6191762;28;20665;-49
2023/11/15 09:09:40;;;;;;;0.97;0.40;;;;;;;10.71;80.06;97374.91;6192980;28;20623;-53
2023/11/15 09:12:44;;;;;;;0.80;0.40;;;;;;;11.08;79.99;97384.88;6194378;28;20299;-53
2023/11/15 09:15:47;;;;;;;0.60;0.30;;;;;;;11.13;74.83;97341.47;6201277;28;20223;-53
2023/11/15 09:18:50;;;;;;;0.97;0.50;;;;;;;11.28;79.36;97397.59;6202935;28;20206;-53
2023/11/15 09:21:52;;;;;;;0.37;0.37;;;;;;;11.43;76.97;97387.06;6203500;28;20665;-51
2023/11/15 09:24:54;;;;;;;0.80;0.50;;;;;;;11.60;77.59;97390.41;6210252;28;20194;-53
2023/11/15 09:28:14;;;;;;;2.00;0.50;;;;;;;11.95;77.47;97407.75;6212813;28;20271;-53
2023/11/15 09:31:17;;;;;;;0.60;0.43;;;;;;;12.02;70.98;97413.69;6202201;28;20229;-53
2023/11/15 09:34:20;;;;;;;1.03;0.40;;;;;;;11.73;73.49;97418.53;6185718;28;20182;-51
2023/11/15 09:37:23;;;;;;;0.40;0.40;;;;;;;11.66;75.14;97431.25;6192959;28;20197;-52
2023/11/15 09:40:26;;;;;;;0.97;0.40;;;;;;;11.28;75.16;97389.59;6194479;28;20201;-53
2023/11/15 09:43:29;;;;;;;0.93;0.30;;;;;;;11.40;72.04;97416.09;6197281;28;20201;-54
2023/11/15 09:46:31;;;;;;;2.07;0.40;;;;;;;11.17;75.19;97414.56;6193581;28;20680;-51
2023/11/15 09:49:35;;;;;;;0.70;0.30;;;;;;;11.10;73.90;97415.56;6179714;28;20231;-50
2023/11/15 09:52:40;;;;;;;0.77;0.43;;;;;;;11.14;74.31;97423.06;6194853;28;20201;-52
2023/11/15 09:55:43;;;;;;;0.63;0.30;;;;;;;11.08;71.84;97371.53;6193495;28;20205;-51
2023/11/15 09:58:47;;;;;;;0.43;0.40;;;;;;;11.32;73.62;97350.69;6196003;28;20189;-52
2023/11/15 10:01:49;;;;;;;0.87;0.40;;;;;;;11.69;73.06;97392.59;6195785;28;20198;-51
2023/11/15 10:05:18;;;;;;;0.50;0.20;;;;;;;11.80;71.28;97399.63;6197276;28;20661;-53
2023/11/15 10:08:20;;;;;;;0.37;0.30;;;;;;;11.90;71.70;97389.03;6194912;28;20204;-51
2023/11/15 10:11:24;;;;;;;0.83;0.40;;;;;;;11.96;69.18;97377.31;6192933;28;20263;-52
2023/11/15 10:14:29;;;;;;;0.47;0.33;;;;;;;11.79;71.40;97363.31;6202327;28;20649;-54
2023/11/15 10:17:40;;;;;;;1.33;0.40;;;;;;;11.79;71.59;97374.00;6200150;28;20567;-49
2023/11/15 10:20:43;;;;;;;1.00;0.60;;;;;;;11.71;71.26;97367.25;6202713;28;20221;-53
2023/11/15 10:23:46;;;;;;;1.10;0.60;;;;;;;11.54;71.15;97319.41;6195610;28;20204;-53
2023/11/15 10:26:50;;;;;;;0.83;0.40;;;;;;;11.79;70.89;97355.31;6194559;28;20224;-49
2023/11/15 10:29:52;;;;;;;1.43;0.40;;;;;;;11.73;72.56;97367.03;6193734;28;20202;-52
2023/11/15 10:33:13;;;;;;;1.67;0.57;;;;;;;11.94;70.97;97366.13;6178068;28;20225;-53
2023/11/15 10:36:19;;;;;;;0.30;0.30;;;;;;;12.02;72.12;97391.50;6197443;28;20197;-53
2023/11/15 10:39:21;;;;;;;1.50;0.50;;;;;;;11.80;75.71;97359.59;6197091;28;20197;-53
2023/11/15 10:42:28;;;;;;;0.80;0.47;;;;;;;11.44;77.96;97390.53;6195673;28;20210;-51
2023/11/15 10:45:31;;;;;;;1.70;0.40;;;;;;;10.98;78.51;97377.56;6195347;28;20195;-49
2023/11/15 10:48:37;;;;;;;0.50;0.40;;;;;;;11.09;78.85;97363.31;6189687;28;20331;-54
2023/11/15 10:51:41;;;;;;;1.17;0.50;;;;;;;11.12;78.86;97359.31;6193632;28;20653;-53
2023/11/15 10:54:44;;;;;;;0.40;0.40;;;;;;;11.13;77.03;97341.47;6199075;28;20195;-54
2023/11/15 10:57:49;;;;;;;1.90;0.60;;;;;;;11.25;78.57;97339.44;6180305;28;20199;-53
2023/11/15 11:00:54;;;;;;;1.23;0.50;;;;;;;11.19;77.78;97338.59;6198668;28;20732;-49
2023/11/15 11:03:58;;;;;;;1.77;0.37;;;;;;;11.31;78.28;97341.09;6202472;28;20731;-52
2023/11/15 11:07:16;;;;;;;1.10;0.40;;;;;;;11.49;74.31;97348.72;6205584;28;20304;-52
2023/11/15 11:10:26;;;;;;;1.57;0.50;;;;;;;11.59;76.38;97331.97;6209116;28;20293;-51
2023/11/15 11:13:28;;;;;;;0.37;0.37;;;;;;;11.44;75.53;97350.53;6207238;28;20209;-53
2023/11/15 11:16:34;;;;;;;1.67;0.57;;;;;;;11.62;74.93;97360.78;6186966;28;20212;-50
2023/11/15 11:19:43;;;;;;;0.47;0.30;;;;;;;11.66;73.69;97358.41;6184108;28;20278;-54
2023/11/15 11:23:08;;;;;;;0.50;0.50;;;;;;;11.54;75.34;97364.75;6182908;28;20300;-54
2023/11/15 11:26:35;;;;;;;0.50;0.30;;;;;;;11.57;77.42;97374.88;6185583;28;20202;-54
2023/11/15 11:29:49;;;;;;;0.77;0.53;;;;;;;11.55;73.38;97357.53;6188331;28;20715;-53
2023/11/15 11:33:09;;;;;;;0.97;0.50;;;;;;;11.63;74.22;97359.75;6195712;28;20241;-53
2023/11/15 11:36:45;;;;;;;0.87;0.30;;;;;;;11.53;75.95;97362.34;6194153;28;20202;-50
2023/11/15 11:39:47;;;;;;;0.87;0.50;;;;;;;11.45;74.54;97365.47;6171700;28;20224;-53
2023/11/15 11:42:54;;;;;;;0.50;0.43;;;;;;;11.11;75.32;97333.72;6194764;28;20275;-51
2023/11/15 11:45:57;;;;;;;1.40;0.50;;;;;;;11.29;76.53;97353.88;6195232;28;20258;-53
2023/11/15 11:48:59;;;;;;;1.27;0.30;;;;;;;11.26;74.97;97370.38;6195490;28;20705;-52
2023/11/15 11:52:02;;;;;;;0.47;0.30;;;;;;;11.23;75.52;97370.88;6194836;28;20253;-52
2023/11/15 11:55:06;;;;;;;1.13;0.50;;;;;;;11.40;74.31;97373.44;6194994;28;20760;-54
2023/11/15 11:58:08;;;;;;;2.53;0.57;;;;;;;11.46;73.97;97380.41;6195445;28;20286;-52
2023/11/15 12:01:11;;;;;;;2.27;0.50;;;;;;;11.43;73.54;97380.91;6195239;28;20563;-52
2023/11/15 12:04:13;;;;;;;0.83;0.50;;;;;;;11.26;75.59;97384.50;6195283;28;20604;-52
2023/11/15 12:07:16;;;;;;;1.73;0.67;;;;;;;11.33;74.23;97393.13;6194157;28;20200;-52
2023/11/15 12:10:18;;;;;;;1.17;0.37;;;;;;;11.49;73.17;97391.38;6195144;28;20741;-49
2023/11/15 12:13:20;;;;;;;2.10;0.73;;;;;;;11.36;73.66;97391.81;6191689;28;20583;-52
2023/11/15 12:16:25;;;;;;;2.30;0.40;;;;;;;11.59;72.19;97380.78;6194199;28;20553;-54
2023/11/15 12:19:40;;;;;;;2.83;0.40;;;;;;;11.62;73.14;97387.47;6194145;28;20336;-48
2023/11/15 12:22:43;;;;;;;0.87;0.40;;;;;;;11.65;73.32;97373.63;6193735;28;20729;-52
2023/11/15 12:25:49;;;;;;;0.77;0.40;;;;;;;11.68;71.75;97375.78;6194721;28;20194;-53
2023/11/15 12:28:51;;;;;;;0.40;0.40;;;;;;;11.60;72.39;97376.25;6177142;28;20748;-54
2023/11/15 12:31:56;;;;;;;0.70;0.47;;;;;;;11.57;73.21;97398.09;6192149;28;20236;-53
2023/11/15 12:34:59;;;;;;;0.30;0.30;;;;;;;11.54;70.28;97399.44;6167928;28;20202;-53
2023/11/15 12:38:05;;;;;;;0.93;0.40;;;;;;;11.34;72.97;97367.25;6198491;28;20205;-50
2023/11/15 12:41:08;;;;;;;1.50;0.40;;;;;;;11.35;72.44;97387.53;6193646;28;20562;-53
2023/11/15 12:44:12;;;;;;;0.80;0.40;;;;;;;11.20;74.33;97392.72;6198000;28;20193;-52
2023/11/15 12:47:16;;;;;;;0.80;0.50;;;;;;;11.09;74.51;97389.97;6197902;28;20663;-51
2023/11/15 12:50:21;;;;;;;1.00;0.50;;;;;;;11.06;73.50;97392.31;6197011;28;20192;-53
2023/11/15 12:53:28;;;;;;;1.77;0.40;;;;;;;11.10;71.63;97383.56;6194174;28;20185;-52
2023/11/15 12:56:30;;;;;;;2.20;0.40;;;;;;;11.18;72.42;97397.50;6183706;28;21006;-51
2023/11/15 12:59:33;;;;;;;1.00;0.30;;;;;;;11.06;73.85;97392.31;6190648;28;20877;-49
2023/11/15 13:02:36;;;;;;;0.93;0.30;;;;;;;11.08;73.20;97408.88;6185155;28;20372;-51
2023/11/15 13:05:38;;;;;;;0.53;0.40;;;;;;;11.00;74.16;97414.66;6183375;28;20193;-53
2023/11/15 13:08:45;;;;;;;0.47;0.30;;;;;;;10.88;77.07;97425.44;6183330;28;20784;-52
2023/11/15 13:11:51;;;;;;;1.03;0.50;;;;;;;10.72;74.40;97448.44;6185556;28;20204;-54
2023/11/15 13:14:55;;;;;;;1.63;0.37;;;;;;;10.92;72.92;97436.41;6197780;28;20193;-51
2023/11/15 13:17:58;;;;;;;2.90;0.40;;;;;;;10.69;74.09;97446.31;6190520;28;20197;-52
2023/11/15 13:21:01;;;;;;;1.97;0.60;;;;;;;10.66;74.87;97461.97;6189256;28;20221;-52
2023/11/15 13:24:04;;;;;;;0.93;0.43;;;;;;;10.52;76.28;97462.31;6197698;28;20215;-53
2023/11/15 13:27:06;;;;;;;1.33;0.40;;;;;;;10.53;77.01;97471.91;6190421;28;20677;-50
2023/11/15 13:30:09;;;;;;;1.33;0.53;;;;;;;10.50;76.91;97455.63;6188520;28;20204;-53
2023/11/15 13:33:12;;;;;;;1.30;0.53;;;;;;;10.48;76.52;97453.19;6217110;28;20207;-53
2023/11/15 13:36:16;;;;;;;0.90;0.63;;;;;;;10.74;74.19;97491.66;6215943;28;20215;-52
2023/11/15 13:39:19;;;;;;;0.47;0.40;;;;;;;10.90;72.70;97487.31;6217383;28;20275;-53
2023/11/15 13:42:22;;;;;;;1.10;0.50;;;;;;;10.91;72.51;97494.25;6217703;28;20203;-50
2023/11/15 13:45:26;;;;;;;1.47;0.47;;;;;;;10.62;76.54;97498.13;6220048;28;20195;-49
2023/11/15 13:48:29;;;;;;;0.83;0.50;;;;;;;10.42;76.92;97499.47;6217098;28;20286;-53
2023/11/15 13:51:31;;;;;;;1.23;0.40;;;;;;;10.37;77.34;97510.03;6207315;28;20218;-50
2023/11/15 13:54:33;;;;;;;0.77;0.43;;;;;;;10.43;75.79;97509.06;6223814;28;20200;-54
2023/11/15 13:57:36;;;;;;;0.30;0.30;;;;;;;10.80;72.04;97501.31;6224094;28;20212;-54
2023/11/15 14:00:38;;;;;;;1.00;0.60;;;;;;;10.67;72.98;97530.16;6225227;28;20196;-53
2023/11/15 14:03:42;;;;;;;0.73;0.37;;;;;;;10.67;71.64;97517.66;6226303;28;20200;-52
2023/11/15 14:06:46;;;;;;;0.57;0.30;;;;;;;10.49;73.00;97545.41;6206830;28;20555;-50
2023/11/15 14:09:49;;;;;;;0.60;0.40;;;;;;;10.42;72.55;97526.09;6224660;28;20204;-54
2023/11/15 14:12:51;;;;;;;0.87;0.47;;;;;;;10.51;71.94;97529.97;6224262;28;20220;-51
2023/11/15 14:15:54;;;;;;;1.00;0.40;;;;;;;10.38;73.31;97530.28;6226053;28;20211;-53
2023/11/15 14:18:56;;;;;;;0.90;0.53;;;;;;;10.33;73.24;97544.34;6225396;28;20208;-50
2023/11/15 14:21:58;;;;;;;0.87;0.40;;;;;;;10.39;73.02;97531.91;6225328;28;20202;-53
2023/11/15 14:25:06;;;;;;;2.40;0.43;;;;;;;10.26;72.73;97535.72;6225586;28;20323;-52